TRLO2: Red River Nr Terral, OK

Data processed at Thu Jan 04 2018 23:07


All information presented herein is the property of the government of the United States of America and may be revised or deleted at any time without prior notice.
Dissemination of this information without the expressed written consent of the Public Affairs Office, Tulsa District U.S. Army Corps of Engineers is strictly prohibited.
These data are gathered electronically and, as presented, have not undergone any form of quality control. These data are not guaranteed to be valid or correct.
Go to home page.
Go to station list.

Upstream stations:

Downstream station:
Previous Day
Next Day
Current Day
    
SHEF ID:       TRLO2     Red Rv nr Terral, OK
STATION TYPE:  

               PRECIP     STAGE  RIV-FLOW   VOLTAGE  BAT-LOAD
                   in        ft       cfs      volt      volt
              Ccp-Rev   Ccp-Rev   Ccp-Rev   Ccp-Rev   Ccp-Rev
(US/Central)
01/02 00:00      0.00      7.22       487     13.10     12.60
01/02 01:00      0.00      7.21       483     13.00     12.60
01/02 02:00      0.00      7.19       475     13.00     12.54
01/02 03:00      0.00      7.14       455     13.00     12.54
01/02 04:00      0.00      6.96       388     13.00     12.48
01/02 05:00      0.00      6.81       336     13.00     12.48
01/02 06:00      0.00      6.76       319     13.00     12.48
01/02 07:00      0.00      6.65       284     13.00     12.48
01/02 08:00      0.00      6.64       281     13.00     12.48
01/02 09:00      0.00      6.67       290     13.20     12.42
01/02 10:00      0.00      6.68       294     13.60     12.65
01/02 11:00      0.00      6.68       294     14.00     13.00
01/02 12:00      0.00      6.67       290     15.10     13.30
01/02 13:00      0.00      6.65       284     14.90     13.53
01/02 14:00      0.00      6.66       287     15.30     13.71
01/02 15:00      0.00      6.70       300     15.50     13.36
01/02 16:00      0.00      6.74       313     15.10     13.24
01/02 17:00      0.00      6.78       326     13.40     13.24
01/02 18:00      0.00      6.81       336     13.20     12.95
01/02 19:00      0.00      6.84       346     13.20     12.77
01/02 20:00      0.00      6.85       349     13.10     12.65
01/02 21:00      0.00      6.86       353     13.10     12.65
01/02 22:00      0.00      6.87       356     13.10     12.65
01/02 23:00      0.00      6.87       356     13.10     12.60